sensor_id;sensor_type;location;lat;lon;timestamp;P1;durP1;ratioP1;P2;durP2;ratioP2
11230;SDS011;5672;51.060;3.734;2023-04-23T00:02:01;15.90;;;14.40;;
11230;SDS011;5672;51.060;3.734;2023-04-23T00:04:28;15.60;;;14.10;;
11230;SDS011;5672;51.060;3.734;2023-04-23T00:06:58;16.60;;;15.00;;
11230;SDS011;5672;51.060;3.734;2023-04-23T00:09:24;16.07;;;14.60;;
11230;SDS011;5672;51.060;3.734;2023-04-23T00:11:54;16.00;;;14.30;;
11230;SDS011;5672;51.060;3.734;2023-04-23T00:14:20;17.23;;;15.60;;
11230;SDS011;5672;51.060;3.734;2023-04-23T00:16:46;15.93;;;14.43;;
11230;SDS011;5672;51.060;3.734;2023-04-23T00:19:12;16.73;;;15.00;;
11230;SDS011;5672;51.060;3.734;2023-04-23T00:21:38;17.93;;;15.83;;
11230;SDS011;5672;51.060;3.734;2023-04-23T00:24:04;17.13;;;15.53;;
11230;SDS011;5672;51.060;3.734;2023-04-23T00:26:30;18.43;;;15.60;;
11230;SDS011;5672;51.060;3.734;2023-04-23T00:28:56;16.80;;;15.00;;
11230;SDS011;5672;51.060;3.734;2023-04-23T00:31:22;17.33;;;15.63;;
11230;SDS011;5672;51.060;3.734;2023-04-23T00:33:50;16.03;;;14.43;;
11230;SDS011;5672;51.060;3.734;2023-04-23T00:36:16;17.07;;;15.47;;
11230;SDS011;5672;51.060;3.734;2023-04-23T00:38:42;17.87;;;16.13;;
11230;SDS011;5672;51.060;3.734;2023-04-23T00:41:09;16.93;;;15.20;;
11230;SDS011;5672;51.060;3.734;2023-04-23T00:43:35;17.63;;;15.97;;
11230;SDS011;5672;51.060;3.734;2023-04-23T00:46:01;17.43;;;15.73;;
11230;SDS011;5672;51.060;3.734;2023-04-23T00:48:27;16.90;;;15.23;;
11230;SDS011;5672;51.060;3.734;2023-04-23T00:50:57;19.93;;;16.10;;
11230;SDS011;5672;51.060;3.734;2023-04-23T00:53:24;17.30;;;15.60;;
11230;SDS011;5672;51.060;3.734;2023-04-23T00:55:50;16.67;;;15.13;;
11230;SDS011;5672;51.060;3.734;2023-04-23T00:58:16;18.27;;;15.87;;
11230;SDS011;5672;51.060;3.734;2023-04-23T01:00:43;17.20;;;15.40;;
11230;SDS011;5672;51.060;3.734;2023-04-23T01:03:12;17.17;;;15.30;;
11230;SDS011;5672;51.060;3.734;2023-04-23T01:05:39;17.60;;;15.83;;
11230;SDS011;5672;51.060;3.734;2023-04-23T01:08:06;17.70;;;15.90;;
11230;SDS011;5672;51.060;3.734;2023-04-23T01:10:33;17.43;;;15.70;;
11230;SDS011;5672;51.060;3.734;2023-04-23T01:12:59;17.60;;;15.83;;
11230;SDS011;5672;51.060;3.734;2023-04-23T01:15:25;17.13;;;15.33;;
11230;SDS011;5672;51.060;3.734;2023-04-23T01:17:51;18.03;;;15.30;;
11230;SDS011;5672;51.060;3.734;2023-04-23T01:20:17;17.30;;;15.63;;
11230;SDS011;5672;51.060;3.734;2023-04-23T01:22:43;17.40;;;15.63;;
11230;SDS011;5672;51.060;3.734;2023-04-23T01:25:10;17.73;;;15.83;;
11230;SDS011;5672;51.060;3.734;2023-04-23T01:27:36;17.70;;;15.50;;
11230;SDS011;5672;51.060;3.734;2023-04-23T01:30:02;17.20;;;15.40;;
11230;SDS011;5672;51.060;3.734;2023-04-23T01:32:30;16.43;;;14.87;;
11230;SDS011;5672;51.060;3.734;2023-04-23T01:34:56;17.57;;;15.73;;
11230;SDS011;5672;51.060;3.734;2023-04-23T01:37:23;16.73;;;15.03;;
11230;SDS011;5672;51.060;3.734;2023-04-23T01:39:50;17.13;;;15.43;;
11230;SDS011;5672;51.060;3.734;2023-04-23T01:42:16;16.87;;;15.23;;
11230;SDS011;5672;51.060;3.734;2023-04-23T01:44:42;16.80;;;15.13;;
11230;SDS011;5672;51.060;3.734;2023-04-23T01:47:08;18.97;;;15.90;;
11230;SDS011;5672;51.060;3.734;2023-04-23T01:49:35;17.03;;;15.33;;
11230;SDS011;5672;51.060;3.734;2023-04-23T01:52:01;16.50;;;15.00;;
11230;SDS011;5672;51.060;3.734;2023-04-23T01:54:28;17.17;;;15.40;;
11230;SDS011;5672;51.060;3.734;2023-04-23T01:56:54;17.33;;;15.53;;
11230;SDS011;5672;51.060;3.734;2023-04-23T01:59:21;16.50;;;14.83;;
11230;SDS011;5672;51.060;3.734;2023-04-23T02:01:47;16.40;;;14.80;;
11230;SDS011;5672;51.060;3.734;2023-04-23T02:04:14;15.93;;;14.43;;
11230;SDS011;5672;51.060;3.734;2023-04-23T02:06:40;18.00;;;16.07;;
11230;SDS011;5672;51.060;3.734;2023-04-23T02:09:07;16.67;;;14.97;;
11230;SDS011;5672;51.060;3.734;2023-04-23T02:11:33;15.67;;;14.17;;
11230;SDS011;5672;51.060;3.734;2023-04-23T02:13:59;16.67;;;15.00;;
11230;SDS011;5672;51.060;3.734;2023-04-23T02:16:26;16.37;;;14.53;;
11230;SDS011;5672;51.060;3.734;2023-04-23T02:18:52;16.37;;;14.83;;
11230;SDS011;5672;51.060;3.734;2023-04-23T02:21:19;16.57;;;14.83;;
11230;SDS011;5672;51.060;3.734;2023-04-23T02:23:45;15.70;;;13.93;;
11230;SDS011;5672;51.060;3.734;2023-04-23T02:26:11;16.57;;;14.93;;
11230;SDS011;5672;51.060;3.734;2023-04-23T02:28:37;15.90;;;14.20;;
11230;SDS011;5672;51.060;3.734;2023-04-23T02:31:03;14.63;;;13.13;;
11230;SDS011;5672;51.060;3.734;2023-04-23T02:33:29;15.87;;;14.30;;
11230;SDS011;5672;51.060;3.734;2023-04-23T02:35:55;14.60;;;13.30;;
11230;SDS011;5672;51.060;3.734;2023-04-23T02:38:21;15.80;;;13.43;;
11230;SDS011;5672;51.060;3.734;2023-04-23T02:40:47;15.40;;;13.97;;
11230;SDS011;5672;51.060;3.734;2023-04-23T02:43:13;14.67;;;13.17;;
11230;SDS011;5672;51.060;3.734;2023-04-23T02:45:39;19.47;;;14.90;;
11230;SDS011;5672;51.060;3.734;2023-04-23T02:48:05;20.57;;;14.73;;
11230;SDS011;5672;51.060;3.734;2023-04-23T02:50:31;15.23;;;13.77;;
11230;SDS011;5672;51.060;3.734;2023-04-23T02:52:57;13.80;;;12.53;;
11230;SDS011;5672;51.060;3.734;2023-04-23T02:55:23;15.93;;;14.30;;
11230;SDS011;5672;51.060;3.734;2023-04-23T02:57:49;14.07;;;12.73;;
11230;SDS011;5672;51.060;3.734;2023-04-23T03:00:16;14.33;;;12.77;;
11230;SDS011;5672;51.060;3.734;2023-04-23T03:02:42;14.30;;;12.87;;
11230;SDS011;5672;51.060;3.734;2023-04-23T03:05:08;14.67;;;13.27;;
11230;SDS011;5672;51.060;3.734;2023-04-23T03:07:34;15.30;;;13.70;;
11230;SDS011;5672;51.060;3.734;2023-04-23T03:10:00;13.93;;;12.63;;
11230;SDS011;5672;51.060;3.734;2023-04-23T03:12:26;15.20;;;13.07;;
11230;SDS011;5672;51.060;3.734;2023-04-23T03:14:52;13.70;;;12.40;;
11230;SDS011;5672;51.060;3.734;2023-04-23T03:17:18;14.10;;;12.60;;
11230;SDS011;5672;51.060;3.734;2023-04-23T03:19:44;14.30;;;12.50;;
11230;SDS011;5672;51.060;3.734;2023-04-23T03:22:10;13.93;;;12.53;;
11230;SDS011;5672;51.060;3.734;2023-04-23T03:24:36;14.00;;;12.50;;
11230;SDS011;5672;51.060;3.734;2023-04-23T03:27:02;14.27;;;12.37;;
11230;SDS011;5672;51.060;3.734;2023-04-23T03:29:27;12.43;;;11.33;;
11230;SDS011;5672;51.060;3.734;2023-04-23T03:31:53;13.37;;;11.93;;
11230;SDS011;5672;51.060;3.734;2023-04-23T03:34:20;12.90;;;11.40;;
11230;SDS011;5672;51.060;3.734;2023-04-23T03:36:46;13.10;;;11.77;;
11230;SDS011;5672;51.060;3.734;2023-04-23T03:39:13;12.23;;;10.93;;
11230;SDS011;5672;51.060;3.734;2023-04-23T03:41:39;11.93;;;10.57;;
11230;SDS011;5672;51.060;3.734;2023-04-23T03:44:05;11.80;;;10.60;;
11230;SDS011;5672;51.060;3.734;2023-04-23T03:46:31;11.37;;;10.27;;
11230;SDS011;5672;51.060;3.734;2023-04-23T03:48:57;13.17;;;10.77;;
11230;SDS011;5672;51.060;3.734;2023-04-23T03:51:23;10.50;;;9.50;;
11230;SDS011;5672;51.060;3.734;2023-04-23T03:53:49;11.13;;;10.03;;
11230;SDS011;5672;51.060;3.734;2023-04-23T03:56:15;11.40;;;10.17;;
11230;SDS011;5672;51.060;3.734;2023-04-23T03:58:41;11.77;;;10.30;;
11230;SDS011;5672;51.060;3.734;2023-04-23T04:01:07;10.87;;;9.77;;
11230;SDS011;5672;51.060;3.734;2023-04-23T04:03:33;9.93;;;9.00;;
11230;SDS011;5672;51.060;3.734;2023-04-23T04:06:00;9.87;;;8.87;;
11230;SDS011;5672;51.060;3.734;2023-04-23T04:08:26;9.57;;;8.57;;
11230;SDS011;5672;51.060;3.734;2023-04-23T04:10:53;11.93;;;8.70;;
11230;SDS011;5672;51.060;3.734;2023-04-23T04:13:20;8.77;;;7.87;;
11230;SDS011;5672;51.060;3.734;2023-04-23T04:15:46;9.63;;;8.20;;
11230;SDS011;5672;51.060;3.734;2023-04-23T04:18:12;8.33;;;7.53;;
11230;SDS011;5672;51.060;3.734;2023-04-23T04:20:38;8.50;;;7.60;;
11230;SDS011;5672;51.060;3.734;2023-04-23T04:23:04;8.23;;;7.43;;
11230;SDS011;5672;51.060;3.734;2023-04-23T04:25:30;8.37;;;7.67;;
11230;SDS011;5672;51.060;3.734;2023-04-23T04:27:56;9.93;;;7.43;;
11230;SDS011;5672;51.060;3.734;2023-04-23T04:30:23;7.90;;;7.10;;
11230;SDS011;5672;51.060;3.734;2023-04-23T04:32:50;7.33;;;6.73;;
11230;SDS011;5672;51.060;3.734;2023-04-23T04:35:16;8.13;;;6.70;;
11230;SDS011;5672;51.060;3.734;2023-04-23T04:37:42;7.50;;;6.80;;
11230;SDS011;5672;51.060;3.734;2023-04-23T04:40:08;7.37;;;6.70;;
11230;SDS011;5672;51.060;3.734;2023-04-23T04:42:35;8.20;;;6.50;;
11230;SDS011;5672;51.060;3.734;2023-04-23T04:45:03;6.83;;;6.13;;
11230;SDS011;5672;51.060;3.734;2023-04-23T04:47:29;6.70;;;6.00;;
11230;SDS011;5672;51.060;3.734;2023-04-23T04:49:56;6.40;;;5.37;;
11230;SDS011;5672;51.060;3.734;2023-04-23T04:52:23;7.20;;;5.63;;
11230;SDS011;5672;51.060;3.734;2023-04-23T04:54:49;7.93;;;5.67;;
11230;SDS011;5672;51.060;3.734;2023-04-23T04:57:16;5.97;;;5.20;;
11230;SDS011;5672;51.060;3.734;2023-04-23T04:59:43;6.30;;;5.50;;
11230;SDS011;5672;51.060;3.734;2023-04-23T05:02:10;7.43;;;5.93;;
11230;SDS011;5672;51.060;3.734;2023-04-23T05:04:36;7.10;;;5.23;;
11230;SDS011;5672;51.060;3.734;2023-04-23T05:07:02;6.47;;;4.83;;
11230;SDS011;5672;51.060;3.734;2023-04-23T05:09:28;6.07;;;4.80;;
11230;SDS011;5672;51.060;3.734;2023-04-23T05:11:54;8.20;;;5.13;;
11230;SDS011;5672;51.060;3.734;2023-04-23T05:14:21;7.93;;;5.20;;
11230;SDS011;5672;51.060;3.734;2023-04-23T05:16:50;6.57;;;4.60;;
11230;SDS011;5672;51.060;3.734;2023-04-23T05:19:16;6.83;;;5.37;;
11230;SDS011;5672;51.060;3.734;2023-04-23T05:21:42;5.67;;;5.03;;
11230;SDS011;5672;51.060;3.734;2023-04-23T05:24:08;7.80;;;5.13;;
11230;SDS011;5672;51.060;3.734;2023-04-23T05:26:34;6.73;;;4.80;;
11230;SDS011;5672;51.060;3.734;2023-04-23T05:29:00;9.57;;;4.50;;
11230;SDS011;5672;51.060;3.734;2023-04-23T05:31:26;6.73;;;4.40;;
11230;SDS011;5672;51.060;3.734;2023-04-23T05:33:52;7.17;;;4.90;;
11230;SDS011;5672;51.060;3.734;2023-04-23T05:36:18;9.10;;;4.63;;
11230;SDS011;5672;51.060;3.734;2023-04-23T05:38:44;6.67;;;4.20;;
11230;SDS011;5672;51.060;3.734;2023-04-23T05:41:10;6.13;;;3.90;;
11230;SDS011;5672;51.060;3.734;2023-04-23T05:43:36;6.80;;;3.80;;
11230;SDS011;5672;51.060;3.734;2023-04-23T05:46:02;9.90;;;4.20;;
11230;SDS011;5672;51.060;3.734;2023-04-23T05:48:30;5.60;;;3.80;;
11230;SDS011;5672;51.060;3.734;2023-04-23T05:50:56;5.10;;;3.93;;
11230;SDS011;5672;51.060;3.734;2023-04-23T05:53:22;5.80;;;3.70;;
11230;SDS011;5672;51.060;3.734;2023-04-23T05:55:48;7.10;;;4.07;;
11230;SDS011;5672;51.060;3.734;2023-04-23T05:58:14;7.50;;;3.90;;
11230;SDS011;5672;51.060;3.734;2023-04-23T06:00:42;7.07;;;3.70;;
11230;SDS011;5672;51.060;3.734;2023-04-23T06:03:08;11.17;;;3.93;;
11230;SDS011;5672;51.060;3.734;2023-04-23T06:05:34;10.87;;;4.20;;
11230;SDS011;5672;51.060;3.734;2023-04-23T06:08:02;7.90;;;3.57;;
11230;SDS011;5672;51.060;3.734;2023-04-23T06:10:27;8.93;;;3.43;;
11230;SDS011;5672;51.060;3.734;2023-04-23T06:12:54;7.17;;;3.80;;
11230;SDS011;5672;51.060;3.734;2023-04-23T06:15:20;9.80;;;3.80;;
11230;SDS011;5672;51.060;3.734;2023-04-23T06:17:50;5.77;;;3.57;;
11230;SDS011;5672;51.060;3.734;2023-04-23T06:20:17;6.90;;;3.37;;
11230;SDS011;5672;51.060;3.734;2023-04-23T06:22:43;7.10;;;3.60;;
11230;SDS011;5672;51.060;3.734;2023-04-23T06:25:09;8.30;;;3.63;;
11230;SDS011;5672;51.060;3.734;2023-04-23T06:27:35;8.37;;;3.70;;
11230;SDS011;5672;51.060;3.734;2023-04-23T06:30:01;6.83;;;3.20;;
11230;SDS011;5672;51.060;3.734;2023-04-23T06:32:27;7.30;;;3.07;;
11230;SDS011;5672;51.060;3.734;2023-04-23T06:34:53;5.90;;;3.20;;
11230;SDS011;5672;51.060;3.734;2023-04-23T06:37:19;5.78;;;3.33;;
11230;SDS011;5672;51.060;3.734;2023-04-23T06:39:45;5.23;;;3.00;;
11230;SDS011;5672;51.060;3.734;2023-04-23T06:42:11;7.20;;;3.60;;
11230;SDS011;5672;51.060;3.734;2023-04-23T06:44:37;8.27;;;3.30;;
11230;SDS011;5672;51.060;3.734;2023-04-23T06:47:03;7.40;;;3.37;;
11230;SDS011;5672;51.060;3.734;2023-04-23T06:49:29;6.20;;;3.50;;
11230;SDS011;5672;51.060;3.734;2023-04-23T06:51:55;12.17;;;3.57;;
11230;SDS011;5672;51.060;3.734;2023-04-23T06:54:21;13.43;;;3.40;;
11230;SDS011;5672;51.060;3.734;2023-04-23T06:56:47;6.93;;;2.77;;
11230;SDS011;5672;51.060;3.734;2023-04-23T06:59:13;9.77;;;2.87;;
11230;SDS011;5672;51.060;3.734;2023-04-23T07:01:39;4.97;;;3.10;;
11230;SDS011;5672;51.060;3.734;2023-04-23T07:04:05;6.00;;;3.35;;
11230;SDS011;5672;51.060;3.734;2023-04-23T07:06:32;6.57;;;3.03;;
11230;SDS011;5672;51.060;3.734;2023-04-23T07:08:58;4.73;;;2.90;;
11230;SDS011;5672;51.060;3.734;2023-04-23T07:11:24;6.87;;;3.27;;
11230;SDS011;5672;51.060;3.734;2023-04-23T07:13:51;5.50;;;2.90;;
11230;SDS011;5672;51.060;3.734;2023-04-23T07:16:17;7.30;;;2.70;;
11230;SDS011;5672;51.060;3.734;2023-04-23T07:18:43;5.57;;;3.10;;
11230;SDS011;5672;51.060;3.734;2023-04-23T07:21:09;5.90;;;2.60;;
11230;SDS011;5672;51.060;3.734;2023-04-23T07:23:35;10.70;;;2.97;;
11230;SDS011;5672;51.060;3.734;2023-04-23T07:26:01;7.17;;;2.80;;
11230;SDS011;5672;51.060;3.734;2023-04-23T07:28:27;7.43;;;2.90;;
11230;SDS011;5672;51.060;3.734;2023-04-23T07:30:53;5.93;;;3.20;;
11230;SDS011;5672;51.060;3.734;2023-04-23T07:33:20;13.07;;;3.13;;
11230;SDS011;5672;51.060;3.734;2023-04-23T07:35:46;9.40;;;3.53;;
11230;SDS011;5672;51.060;3.734;2023-04-23T07:38:12;13.50;;;3.50;;
11230;SDS011;5672;51.060;3.734;2023-04-23T07:40:38;10.90;;;3.50;;
11230;SDS011;5672;51.060;3.734;2023-04-23T07:43:04;5.37;;;3.40;;
11230;SDS011;5672;51.060;3.734;2023-04-23T07:45:30;5.70;;;2.83;;
11230;SDS011;5672;51.060;3.734;2023-04-23T07:47:56;5.63;;;3.37;;
11230;SDS011;5672;51.060;3.734;2023-04-23T07:50:23;5.17;;;3.50;;
11230;SDS011;5672;51.060;3.734;2023-04-23T07:52:49;14.87;;;5.83;;
11230;SDS011;5672;51.060;3.734;2023-04-23T07:55:15;32.33;;;15.27;;
11230;SDS011;5672;51.060;3.734;2023-04-23T07:57:41;32.93;;;14.43;;
11230;SDS011;5672;51.060;3.734;2023-04-23T08:00:07;41.10;;;17.47;;
11230;SDS011;5672;51.060;3.734;2023-04-23T08:02:35;67.07;;;26.10;;
11230;SDS011;5672;51.060;3.734;2023-04-23T08:05:01;37.63;;;19.08;;
11230;SDS011;5672;51.060;3.734;2023-04-23T08:07:27;28.57;;;13.67;;
11230;SDS011;5672;51.060;3.734;2023-04-23T08:09:53;58.23;;;25.37;;
11230;SDS011;5672;51.060;3.734;2023-04-23T08:12:19;65.60;;;26.67;;
11230;SDS011;5672;51.060;3.734;2023-04-23T08:14:45;48.57;;;22.67;;
11230;SDS011;5672;51.060;3.734;2023-04-23T08:17:11;37.40;;;18.20;;
11230;SDS011;5672;51.060;3.734;2023-04-23T08:19:37;47.10;;;20.93;;
11230;SDS011;5672;51.060;3.734;2023-04-23T08:22:03;35.50;;;17.43;;
11230;SDS011;5672;51.060;3.734;2023-04-23T08:24:29;18.97;;;10.53;;
11230;SDS011;5672;51.060;3.734;2023-04-23T08:26:55;19.73;;;7.38;;
11230;SDS011;5672;51.060;3.734;2023-04-23T08:29:21;20.27;;;8.60;;
11230;SDS011;5672;51.060;3.734;2023-04-23T08:31:47;21.50;;;7.03;;
11230;SDS011;5672;51.060;3.734;2023-04-23T08:34:13;9.93;;;5.30;;
11230;SDS011;5672;51.060;3.734;2023-04-23T08:36:40;17.77;;;8.00;;
11230;SDS011;5672;51.060;3.734;2023-04-23T08:39:06;17.03;;;7.23;;
11230;SDS011;5672;51.060;3.734;2023-04-23T08:41:38;12.30;;;7.13;;
11230;SDS011;5672;51.060;3.734;2023-04-23T08:46:35;17.37;;;7.33;;
11230;SDS011;5672;51.060;3.734;2023-04-23T08:49:02;18.02;;;7.90;;
11230;SDS011;5672;51.060;3.734;2023-04-23T08:51:28;15.17;;;8.63;;
11230;SDS011;5672;51.060;3.734;2023-04-23T08:53:57;17.17;;;7.97;;
11230;SDS011;5672;51.060;3.734;2023-04-23T08:56:23;18.00;;;9.67;;
11230;SDS011;5672;51.060;3.734;2023-04-23T08:58:49;12.83;;;7.47;;
11230;SDS011;5672;51.060;3.734;2023-04-23T09:01:16;13.37;;;6.67;;
11230;SDS011;5672;51.060;3.734;2023-04-23T09:03:42;16.00;;;8.18;;
11230;SDS011;5672;51.060;3.734;2023-04-23T09:06:08;10.67;;;6.17;;
11230;SDS011;5672;51.060;3.734;2023-04-23T09:08:34;17.60;;;11.03;;
11230;SDS011;5672;51.060;3.734;2023-04-23T09:11:01;10.17;;;6.27;;
11230;SDS011;5672;51.060;3.734;2023-04-23T09:13:28;14.40;;;7.63;;
11230;SDS011;5672;51.060;3.734;2023-04-23T09:15:55;13.23;;;7.37;;
11230;SDS011;5672;51.060;3.734;2023-04-23T09:18:21;19.77;;;9.83;;
11230;SDS011;5672;51.060;3.734;2023-04-23T09:20:48;25.23;;;13.23;;
11230;SDS011;5672;51.060;3.734;2023-04-23T09:23:15;15.97;;;9.03;;
11230;SDS011;5672;51.060;3.734;2023-04-23T09:25:41;17.53;;;11.23;;
11230;SDS011;5672;51.060;3.734;2023-04-23T09:28:07;15.23;;;8.03;;
11230;SDS011;5672;51.060;3.734;2023-04-23T09:30:44;16.77;;;8.13;;
11230;SDS011;5672;51.060;3.734;2023-04-23T16:03:04;17.00;;;7.78;;
11230;SDS011;5672;51.060;3.734;2023-04-23T16:05:31;5.83;;;4.73;;
11230;SDS011;5672;51.060;3.734;2023-04-23T16:07:58;4.60;;;4.20;;
11230;SDS011;5672;51.060;3.734;2023-04-23T16:10:24;3.90;;;3.60;;
11230;SDS011;5672;51.060;3.734;2023-04-23T16:12:51;3.80;;;3.50;;
11230;SDS011;5672;51.060;3.734;2023-04-23T16:15:19;3.90;;;3.60;;
11230;SDS011;5672;51.060;3.734;2023-04-23T16:17:45;5.50;;;3.73;;
11230;SDS011;5672;51.060;3.734;2023-04-23T16:20:11;3.73;;;3.53;;
11230;SDS011;5672;51.060;3.734;2023-04-23T16:22:37;4.47;;;4.10;;
11230;SDS011;5672;51.060;3.734;2023-04-23T16:25:03;4.33;;;3.93;;
11230;SDS011;5672;51.060;3.734;2023-04-23T16:27:30;5.33;;;3.40;;
11230;SDS011;5672;51.060;3.734;2023-04-23T16:29:56;3.77;;;3.47;;
11230;SDS011;5672;51.060;3.734;2023-04-23T16:32:22;3.67;;;3.37;;
11230;SDS011;5672;51.060;3.734;2023-04-23T16:34:48;4.40;;;3.50;;
11230;SDS011;5672;51.060;3.734;2023-04-23T16:37:14;5.10;;;4.30;;
11230;SDS011;5672;51.060;3.734;2023-04-23T16:39:43;4.57;;;3.80;;
11230;SDS011;5672;51.060;3.734;2023-04-23T16:42:09;3.70;;;3.40;;
11230;SDS011;5672;51.060;3.734;2023-04-23T16:44:35;4.40;;;3.70;;
11230;SDS011;5672;51.060;3.734;2023-04-23T16:47:01;5.23;;;4.10;;
11230;SDS011;5672;51.060;3.734;2023-04-23T16:49:27;3.20;;;2.90;;
11230;SDS011;5672;51.060;3.734;2023-04-23T16:51:53;3.13;;;2.83;;
11230;SDS011;5672;51.060;3.734;2023-04-23T16:54:20;3.40;;;3.10;;
11230;SDS011;5672;51.060;3.734;2023-04-23T16:56:46;4.37;;;2.80;;
11230;SDS011;5672;51.060;3.734;2023-04-23T16:59:12;2.57;;;2.37;;
11230;SDS011;5672;51.060;3.734;2023-04-23T17:01:39;2.97;;;2.70;;
11230;SDS011;5672;51.060;3.734;2023-04-23T17:04:05;3.93;;;3.63;;
11230;SDS011;5672;51.060;3.734;2023-04-23T17:06:31;4.50;;;4.20;;
11230;SDS011;5672;51.060;3.734;2023-04-23T17:08:58;4.80;;;4.50;;
11230;SDS011;5672;51.060;3.734;2023-04-23T17:11:25;9.33;;;8.33;;
11230;SDS011;5672;51.060;3.734;2023-04-23T17:13:51;10.53;;;7.53;;
11230;SDS011;5672;51.060;3.734;2023-04-23T17:16:17;4.43;;;3.40;;
11230;SDS011;5672;51.060;3.734;2023-04-23T17:18:43;4.67;;;3.63;;
11230;SDS011;5672;51.060;3.734;2023-04-23T17:21:09;4.40;;;2.50;;
11230;SDS011;5672;51.060;3.734;2023-04-23T17:23:35;3.83;;;2.90;;
11230;SDS011;5672;51.060;3.734;2023-04-23T17:26:01;2.30;;;1.90;;
11230;SDS011;5672;51.060;3.734;2023-04-23T17:28:27;3.67;;;2.40;;
11230;SDS011;5672;51.060;3.734;2023-04-23T17:30:53;2.33;;;2.23;;
11230;SDS011;5672;51.060;3.734;2023-04-23T17:33:20;2.70;;;2.50;;
11230;SDS011;5672;51.060;3.734;2023-04-23T17:35:48;3.30;;;2.97;;
11230;SDS011;5672;51.060;3.734;2023-04-23T17:38:17;5.67;;;3.40;;
11230;SDS011;5672;51.060;3.734;2023-04-23T17:40:45;6.00;;;3.73;;
11230;SDS011;5672;51.060;3.734;2023-04-23T17:43:11;5.90;;;4.03;;
11230;SDS011;5672;51.060;3.734;2023-04-23T17:45:37;4.60;;;3.63;;
11230;SDS011;5672;51.060;3.734;2023-04-23T17:48:03;5.60;;;3.90;;
11230;SDS011;5672;51.060;3.734;2023-04-23T17:50:29;8.67;;;4.40;;
11230;SDS011;5672;51.060;3.734;2023-04-23T17:52:55;5.50;;;3.90;;
11230;SDS011;5672;51.060;3.734;2023-04-23T17:55:21;3.40;;;3.10;;
11230;SDS011;5672;51.060;3.734;2023-04-23T17:57:48;4.17;;;3.40;;
11230;SDS011;5672;51.060;3.734;2023-04-23T18:00:15;9.00;;;5.80;;
11230;SDS011;5672;51.060;3.734;2023-04-23T18:02:41;4.03;;;3.63;;
11230;SDS011;5672;51.060;3.734;2023-04-23T18:05:08;2.70;;;2.50;;
11230;SDS011;5672;51.060;3.734;2023-04-23T18:07:35;2.50;;;2.30;;
11230;SDS011;5672;51.060;3.734;2023-04-23T18:10:01;3.10;;;1.90;;
11230;SDS011;5672;51.060;3.734;2023-04-23T18:12:28;2.43;;;1.77;;
11230;SDS011;5672;51.060;3.734;2023-04-23T18:14:54;1.63;;;1.53;;
11230;SDS011;5672;51.060;3.734;2023-04-23T18:17:20;1.23;;;1.13;;
11230;SDS011;5672;51.060;3.734;2023-04-23T18:19:46;1.60;;;1.40;;
11230;SDS011;5672;51.060;3.734;2023-04-23T18:22:13;1.90;;;1.40;;
11230;SDS011;5672;51.060;3.734;2023-04-23T18:24:39;2.10;;;1.20;;
11230;SDS011;5672;51.060;3.734;2023-04-23T18:27:05;1.90;;;1.33;;
11230;SDS011;5672;51.060;3.734;2023-04-23T18:29:31;1.40;;;1.30;;
11230;SDS011;5672;51.060;3.734;2023-04-23T18:31:57;1.60;;;1.47;;
11230;SDS011;5672;51.060;3.734;2023-04-23T18:34:23;1.50;;;1.40;;
11230;SDS011;5672;51.060;3.734;2023-04-23T18:36:53;6.23;;;1.90;;
11230;SDS011;5672;51.060;3.734;2023-04-23T18:39:19;2.67;;;1.50;;
11230;SDS011;5672;51.060;3.734;2023-04-23T18:41:45;1.23;;;1.13;;
11230;SDS011;5672;51.060;3.734;2023-04-23T18:44:12;1.97;;;1.20;;
11230;SDS011;5672;51.060;3.734;2023-04-23T18:46:39;1.27;;;0.97;;
11230;SDS011;5672;51.060;3.734;2023-04-23T18:49:05;2.83;;;1.40;;
11230;SDS011;5672;51.060;3.734;2023-04-23T18:51:51;4.70;;;1.70;;
11230;SDS011;5672;51.060;3.734;2023-04-23T18:54:17;2.33;;;2.07;;
11230;SDS011;5672;51.060;3.734;2023-04-23T18:56:43;2.97;;;2.10;;
11230;SDS011;5672;51.060;3.734;2023-04-23T18:59:09;3.80;;;2.50;;
11230;SDS011;5672;51.060;3.734;2023-04-23T19:01:35;2.60;;;2.37;;
11230;SDS011;5672;51.060;3.734;2023-04-23T19:04:03;2.73;;;2.47;;
11230;SDS011;5672;51.060;3.734;2023-04-23T19:06:29;2.70;;;2.40;;
11230;SDS011;5672;51.060;3.734;2023-04-23T19:08:55;3.77;;;3.43;;
11230;SDS011;5672;51.060;3.734;2023-04-23T19:11:21;2.60;;;2.40;;
11230;SDS011;5672;51.060;3.734;2023-04-23T19:13:47;3.53;;;3.33;;
11230;SDS011;5672;51.060;3.734;2023-04-23T19:16:13;3.03;;;2.83;;
11230;SDS011;5672;51.060;3.734;2023-04-23T19:18:40;3.47;;;2.70;;
11230;SDS011;5672;51.060;3.734;2023-04-23T19:21:06;2.67;;;2.57;;
11230;SDS011;5672;51.060;3.734;2023-04-23T19:23:33;3.50;;;2.70;;
11230;SDS011;5672;51.060;3.734;2023-04-23T19:25:59;2.10;;;2.00;;
11230;SDS011;5672;51.060;3.734;2023-04-23T19:28:27;2.03;;;1.90;;
11230;SDS011;5672;51.060;3.734;2023-04-23T19:30:53;2.20;;;2.10;;
11230;SDS011;5672;51.060;3.734;2023-04-23T19:33:19;2.13;;;2.03;;
11230;SDS011;5672;51.060;3.734;2023-04-23T19:35:45;2.67;;;2.47;;
11230;SDS011;5672;51.060;3.734;2023-04-23T19:38:12;2.30;;;2.10;;
11230;SDS011;5672;51.060;3.734;2023-04-23T19:40:38;2.03;;;1.83;;
11230;SDS011;5672;51.060;3.734;2023-04-23T19:43:04;2.40;;;2.20;;
11230;SDS011;5672;51.060;3.734;2023-04-23T19:45:31;2.03;;;1.93;;
11230;SDS011;5672;51.060;3.734;2023-04-23T19:47:57;2.00;;;1.90;;
11230;SDS011;5672;51.060;3.734;2023-04-23T19:50:23;1.80;;;1.70;;
11230;SDS011;5672;51.060;3.734;2023-04-23T19:52:50;2.00;;;1.80;;
11230;SDS011;5672;51.060;3.734;2023-04-23T19:55:16;1.50;;;1.50;;
11230;SDS011;5672;51.060;3.734;2023-04-23T19:57:44;2.00;;;1.90;;
11230;SDS011;5672;51.060;3.734;2023-04-23T20:00:11;2.00;;;1.90;;
11230;SDS011;5672;51.060;3.734;2023-04-23T20:02:41;2.07;;;1.87;;
11230;SDS011;5672;51.060;3.734;2023-04-23T20:05:07;1.87;;;1.77;;
11230;SDS011;5672;51.060;3.734;2023-04-23T20:07:34;1.67;;;1.63;;
11230;SDS011;5672;51.060;3.734;2023-04-23T20:10:01;2.10;;;1.63;;
11230;SDS011;5672;51.060;3.734;2023-04-23T20:12:28;1.80;;;1.70;;
11230;SDS011;5672;51.060;3.734;2023-04-23T20:14:54;1.13;;;1.13;;
11230;SDS011;5672;51.060;3.734;2023-04-23T20:17:21;1.40;;;1.30;;
11230;SDS011;5672;51.060;3.734;2023-04-23T20:19:47;1.30;;;1.20;;
11230;SDS011;5672;51.060;3.734;2023-04-23T20:22:14;1.13;;;1.13;;
11230;SDS011;5672;51.060;3.734;2023-04-23T20:24:40;1.33;;;1.00;;
11230;SDS011;5672;51.060;3.734;2023-04-23T20:27:10;1.10;;;1.10;;
11230;SDS011;5672;51.060;3.734;2023-04-23T20:29:36;1.10;;;1.10;;
11230;SDS011;5672;51.060;3.734;2023-04-23T20:32:02;1.20;;;1.20;;
11230;SDS011;5672;51.060;3.734;2023-04-23T20:34:28;1.90;;;1.80;;
11230;SDS011;5672;51.060;3.734;2023-04-23T20:36:56;2.70;;;2.60;;
11230;SDS011;5672;51.060;3.734;2023-04-23T20:39:23;3.43;;;3.13;;
11230;SDS011;5672;51.060;3.734;2023-04-23T20:41:49;3.40;;;3.20;;
11230;SDS011;5672;51.060;3.734;2023-04-23T20:44:16;3.70;;;3.50;;
11230;SDS011;5672;51.060;3.734;2023-04-23T20:46:46;5.17;;;3.73;;
11230;SDS011;5672;51.060;3.734;2023-04-23T20:49:13;4.70;;;4.33;;
11230;SDS011;5672;51.060;3.734;2023-04-23T20:51:40;5.27;;;4.87;;
11230;SDS011;5672;51.060;3.734;2023-04-23T20:54:06;5.97;;;5.40;;
11230;SDS011;5672;51.060;3.734;2023-04-23T20:56:32;8.53;;;6.57;;
11230;SDS011;5672;51.060;3.734;2023-04-23T20:58:58;8.00;;;6.20;;
11230;SDS011;5672;51.060;3.734;2023-04-23T21:01:24;9.90;;;8.60;;
11230;SDS011;5672;51.060;3.734;2023-04-23T21:03:50;12.60;;;9.33;;
11230;SDS011;5672;51.060;3.734;2023-04-23T21:06:17;16.37;;;10.90;;
11230;SDS011;5672;51.060;3.734;2023-04-23T21:08:44;20.20;;;10.37;;
11230;SDS011;5672;51.060;3.734;2023-04-23T21:11:12;12.10;;;10.80;;
11230;SDS011;5672;51.060;3.734;2023-04-23T21:13:39;17.97;;;10.63;;
11230;SDS011;5672;51.060;3.734;2023-04-23T21:16:05;14.27;;;11.23;;
11230;SDS011;5672;51.060;3.734;2023-04-23T21:18:31;15.03;;;12.13;;